Alat, Azerbaijan

7:30 PM AZST on July 11, 2014 (GMT +0500)
Bina (UBBB) Elev 0 ft | 40.45 °N, 50.07 °E | Change Station

Current weather conditions updated 30 minutes ago

Clear
Clear
88 °F
Feels Like 88 °F
N
10
Wind Variable Wind from East

Tomorrow is forecast to be Warmer than today.

Today
High -- | Low -- °F
--% Chance of Precip.
Yesterday
High -- | Low -- °F
Precip. -- in
6:23 AM 9:12 PM
Waxing Gibbous, 99% visible
Pressure 29.80 in
Visibility -9999.0 miles
Clouds
Heat Index 88 °F
Dew Point 63 °F
Humidity 43%
Rainfall 0.00 in
Snow Depth Not available.
UV Not available.
Pollen Not available.
Air Quality Not available.
Flu Activity Not available.
METAR UBBB 111400Z 09009KT CAVOK 31/17 Q1009 88CLRD70 NOSIG

More Conditions Fewer Conditions

Pressure 29.80 in
Visibility -9999.0 miles
Clouds
Heat Index 88 °F
Dew Point 63 °F
Humidity 43%
Rainfall 0.00 in
Snow Depth Not available.
UV Not available.
Pollen Not available.
Air Quality Not available.
Flu Activity Not available.
METAR UBBB 111400Z 09009KT CAVOK 31/17 Q1009 88CLRD70 NOSIG

More Conditions Fewer Conditions

10-Day Weather Forecast

Almanac

Astronomy

Jul. 11, 2014 Rise Set
Actual Time 6:23 AM AZST 9:12 PM AZST
Civil Twilight 5:50 AM AZST 9:44 PM AZST
Nautical Twilight 5:10 AM AZST 10:24 PM AZST
Astronomical Twilight 4:24 AM AZST 11:10 PM AZST
Moon 8:01 PM AZST 5:10 AM AZST
Length of Visible Light 15h 53m
Length of Day
14h 49m
Tomorrow will be 1m 10s shorter.
Waxing Gibbous, 99% of the Moon is Illuminated
Today
Waxing Gibbous
Jul 12
Full
Jul 18
Last Quarter
Jul 26
New
Aug 3
First Quarter

Yesterday's Extremes

Country Highs Country Lows

Community

WunderPhotos

Upload Photos

1,732,490 photos uploaded!

Nearby

Snow Depth

Not available.

Earthquake Activity

City Distance Mag. Time & Date
No recent earthquake activity has been reported nearby.
Minimum magnitude displayed is 2.5.

Coastal Water Temperatures

Place Temperature
No Stations Reporting

Nearby Weather Stations

There are no personal weather stations in this area.